sensor_id;sensor_type;location;lat;lon;timestamp;P1;durP1;ratioP1;P2;durP2;ratioP2
58689;SDS011;44470;53.206;-6.106;2022-12-18T00:02:11;5.75;;;5.05;;
58689;SDS011;44470;53.206;-6.106;2022-12-18T00:04:37;6.10;;;4.53;;
58689;SDS011;44470;53.206;-6.106;2022-12-18T00:07:03;4.65;;;4.15;;
58689;SDS011;44470;53.206;-6.106;2022-12-18T00:09:29;5.97;;;4.60;;
58689;SDS011;44470;53.206;-6.106;2022-12-18T00:11:54;4.80;;;4.35;;
58689;SDS011;44470;53.206;-6.106;2022-12-18T00:14:35;5.00;;;4.47;;
58689;SDS011;44470;53.206;-6.106;2022-12-18T00:17:01;4.82;;;4.38;;
58689;SDS011;44470;53.206;-6.106;2022-12-18T00:19:27;4.38;;;3.97;;
58689;SDS011;44470;53.206;-6.106;2022-12-18T00:21:53;5.10;;;4.50;;
58689;SDS011;44470;53.206;-6.106;2022-12-18T00:24:18;4.93;;;4.43;;
58689;SDS011;44470;53.206;-6.106;2022-12-18T00:26:44;4.70;;;4.25;;
58689;SDS011;44470;53.206;-6.106;2022-12-18T00:29:11;5.60;;;4.40;;
58689;SDS011;44470;53.206;-6.106;2022-12-18T00:31:39;5.38;;;4.22;;
58689;SDS011;44470;53.206;-6.106;2022-12-18T00:34:05;5.18;;;4.30;;
58689;SDS011;44470;53.206;-6.106;2022-12-18T00:36:32;10.43;;;4.40;;
58689;SDS011;44470;53.206;-6.106;2022-12-18T00:38:59;7.95;;;4.20;;
58689;SDS011;44470;53.206;-6.106;2022-12-18T00:41:26;6.47;;;4.18;;
58689;SDS011;44470;53.206;-6.106;2022-12-18T00:44:12;7.82;;;4.35;;
58689;SDS011;44470;53.206;-6.106;2022-12-18T00:46:40;5.50;;;4.00;;
58689;SDS011;44470;53.206;-6.106;2022-12-18T00:49:07;7.82;;;4.25;;
58689;SDS011;44470;53.206;-6.106;2022-12-18T00:51:33;7.18;;;3.90;;
58689;SDS011;44470;53.206;-6.106;2022-12-18T00:53:59;4.35;;;3.95;;
58689;SDS011;44470;53.206;-6.106;2022-12-18T00:56:24;4.53;;;3.42;;
58689;SDS011;44470;53.206;-6.106;2022-12-18T00:58:51;5.07;;;3.70;;
58689;SDS011;44470;53.206;-6.106;2022-12-18T01:01:17;6.85;;;4.05;;
58689;SDS011;44470;53.206;-6.106;2022-12-18T01:03:42;4.75;;;3.42;;
58689;SDS011;44470;53.206;-6.106;2022-12-18T01:06:10;8.45;;;3.80;;
58689;SDS011;44470;53.206;-6.106;2022-12-18T01:08:37;6.28;;;3.90;;
58689;SDS011;44470;53.206;-6.106;2022-12-18T01:11:14;8.35;;;3.75;;
58689;SDS011;44470;53.206;-6.106;2022-12-18T01:13:43;4.45;;;3.53;;
58689;SDS011;44470;53.206;-6.106;2022-12-18T01:16:13;6.82;;;3.50;;
58689;SDS011;44470;53.206;-6.106;2022-12-18T01:18:41;5.78;;;3.33;;
58689;SDS011;44470;53.206;-6.106;2022-12-18T01:21:07;4.13;;;3.33;;
58689;SDS011;44470;53.206;-6.106;2022-12-18T01:23:36;4.45;;;3.35;;
58689;SDS011;44470;53.206;-6.106;2022-12-18T01:26:08;7.63;;;3.63;;
58689;SDS011;44470;53.206;-6.106;2022-12-18T01:28:36;3.20;;;2.90;;
58689;SDS011;44470;53.206;-6.106;2022-12-18T01:34:01;3.92;;;3.20;;
58689;SDS011;44470;53.206;-6.106;2022-12-18T01:36:28;3.45;;;3.15;;
58689;SDS011;44470;53.206;-6.106;2022-12-18T01:39:00;5.53;;;3.10;;
58689;SDS011;44470;53.206;-6.106;2022-12-18T01:41:29;4.55;;;3.20;;
58689;SDS011;44470;53.206;-6.106;2022-12-18T01:49:52;3.33;;;2.63;;
58689;SDS011;44470;53.206;-6.106;2022-12-18T01:52:18;3.90;;;2.95;;
58689;SDS011;44470;53.206;-6.106;2022-12-18T01:54:45;2.97;;;2.70;;
58689;SDS011;44470;53.206;-6.106;2022-12-18T01:57:13;3.28;;;2.90;;
58689;SDS011;44470;53.206;-6.106;2022-12-18T01:59:38;2.67;;;2.47;;
58689;SDS011;44470;53.206;-6.106;2022-12-18T02:02:06;2.90;;;2.58;;
58689;SDS011;44470;53.206;-6.106;2022-12-18T02:04:32;2.83;;;2.50;;
58689;SDS011;44470;53.206;-6.106;2022-12-18T02:07:05;3.00;;;2.70;;
58689;SDS011;44470;53.206;-6.106;2022-12-18T02:09:41;3.60;;;2.80;;
58689;SDS011;44470;53.206;-6.106;2022-12-18T02:12:23;2.53;;;2.33;;
58689;SDS011;44470;53.206;-6.106;2022-12-18T02:23:51;2.80;;;2.50;;
58689;SDS011;44470;53.206;-6.106;2022-12-18T02:26:30;3.22;;;2.60;;
58689;SDS011;44470;53.206;-6.106;2022-12-18T02:29:06;2.63;;;2.42;;
58689;SDS011;44470;53.206;-6.106;2022-12-18T02:31:49;2.92;;;2.28;;
58689;SDS011;44470;53.206;-6.106;2022-12-18T02:34:18;2.97;;;2.50;;
58689;SDS011;44470;53.206;-6.106;2022-12-18T02:36:47;2.30;;;2.17;;
58689;SDS011;44470;53.206;-6.106;2022-12-18T02:39:15;2.30;;;2.10;;
58689;SDS011;44470;53.206;-6.106;2022-12-18T02:41:54;2.53;;;2.08;;
58689;SDS011;44470;53.206;-6.106;2022-12-18T02:44:22;2.05;;;1.95;;
58689;SDS011;44470;53.206;-6.106;2022-12-18T02:46:51;2.30;;;2.10;;
58689;SDS011;44470;53.206;-6.106;2022-12-18T02:52:17;2.15;;;2.03;;
58689;SDS011;44470;53.206;-6.106;2022-12-18T03:02:25;2.30;;;2.10;;
58689;SDS011;44470;53.206;-6.106;2022-12-18T03:07:52;2.28;;;2.08;;
58689;SDS011;44470;53.206;-6.106;2022-12-18T03:14:19;2.10;;;1.90;;
58689;SDS011;44470;53.206;-6.106;2022-12-18T03:16:49;2.10;;;1.98;;
58689;SDS011;44470;53.206;-6.106;2022-12-18T03:19:21;2.47;;;2.03;;
58689;SDS011;44470;53.206;-6.106;2022-12-18T03:21:51;2.08;;;1.80;;
58689;SDS011;44470;53.206;-6.106;2022-12-18T03:24:22;1.85;;;1.75;;
58689;SDS011;44470;53.206;-6.106;2022-12-18T03:26:52;2.20;;;2.00;;
58689;SDS011;44470;53.206;-6.106;2022-12-18T03:29:42;1.90;;;1.80;;
58689;SDS011;44470;53.206;-6.106;2022-12-18T03:32:23;2.10;;;1.90;;
58689;SDS011;44470;53.206;-6.106;2022-12-18T03:34:54;1.70;;;1.60;;
58689;SDS011;44470;53.206;-6.106;2022-12-18T03:37:31;2.50;;;1.85;;
58689;SDS011;44470;53.206;-6.106;2022-12-18T03:39:57;2.05;;;1.85;;
58689;SDS011;44470;53.206;-6.106;2022-12-18T03:42:42;1.90;;;1.80;;
58689;SDS011;44470;53.206;-6.106;2022-12-18T03:45:18;2.00;;;1.80;;
58689;SDS011;44470;53.206;-6.106;2022-12-18T03:50:37;1.73;;;1.63;;
58689;SDS011;44470;53.206;-6.106;2022-12-18T03:53:14;2.28;;;1.75;;
58689;SDS011;44470;53.206;-6.106;2022-12-18T03:56:02;2.13;;;1.75;;
58689;SDS011;44470;53.206;-6.106;2022-12-18T03:58:34;1.83;;;1.73;;
58689;SDS011;44470;53.206;-6.106;2022-12-18T04:01:13;2.25;;;1.88;;
58689;SDS011;44470;53.206;-6.106;2022-12-18T04:03:42;1.90;;;1.73;;
58689;SDS011;44470;53.206;-6.106;2022-12-18T04:06:09;1.73;;;1.63;;
58689;SDS011;44470;53.206;-6.106;2022-12-18T04:08:36;2.75;;;1.70;;
58689;SDS011;44470;53.206;-6.106;2022-12-18T04:11:05;2.15;;;1.73;;
58689;SDS011;44470;53.206;-6.106;2022-12-18T04:13:32;1.77;;;1.67;;
58689;SDS011;44470;53.206;-6.106;2022-12-18T04:16:02;1.88;;;1.48;;
58689;SDS011;44470;53.206;-6.106;2022-12-18T04:18:28;2.05;;;1.80;;
58689;SDS011;44470;53.206;-6.106;2022-12-18T04:20:54;1.75;;;1.65;;
58689;SDS011;44470;53.206;-6.106;2022-12-18T04:23:19;2.05;;;1.67;;
58689;SDS011;44470;53.206;-6.106;2022-12-18T04:25:46;2.00;;;1.80;;
58689;SDS011;44470;53.206;-6.106;2022-12-18T04:28:17;2.92;;;1.77;;
58689;SDS011;44470;53.206;-6.106;2022-12-18T04:30:42;1.70;;;1.60;;
58689;SDS011;44470;53.206;-6.106;2022-12-18T04:33:09;1.92;;;1.75;;
58689;SDS011;44470;53.206;-6.106;2022-12-18T04:35:36;1.75;;;1.63;;
58689;SDS011;44470;53.206;-6.106;2022-12-18T04:38:02;1.95;;;1.73;;
58689;SDS011;44470;53.206;-6.106;2022-12-18T04:40:27;1.88;;;1.65;;
58689;SDS011;44470;53.206;-6.106;2022-12-18T04:42:53;2.58;;;2.00;;
58689;SDS011;44470;53.206;-6.106;2022-12-18T04:45:18;2.13;;;1.83;;
58689;SDS011;44470;53.206;-6.106;2022-12-18T04:47:44;2.55;;;1.77;;
58689;SDS011;44470;53.206;-6.106;2022-12-18T04:50:09;2.00;;;1.60;;
58689;SDS011;44470;53.206;-6.106;2022-12-18T04:52:35;1.80;;;1.45;;
58689;SDS011;44470;53.206;-6.106;2022-12-18T04:55:01;2.25;;;1.73;;
58689;SDS011;44470;53.206;-6.106;2022-12-18T04:57:26;2.15;;;1.73;;
58689;SDS011;44470;53.206;-6.106;2022-12-18T04:59:52;2.30;;;1.65;;
58689;SDS011;44470;53.206;-6.106;2022-12-18T05:02:19;1.63;;;1.52;;
58689;SDS011;44470;53.206;-6.106;2022-12-18T05:04:44;1.80;;;1.70;;
58689;SDS011;44470;53.206;-6.106;2022-12-18T05:07:09;1.92;;;1.70;;
58689;SDS011;44470;53.206;-6.106;2022-12-18T05:09:35;2.10;;;1.85;;
58689;SDS011;44470;53.206;-6.106;2022-12-18T05:12:00;1.48;;;1.38;;
58689;SDS011;44470;53.206;-6.106;2022-12-18T05:14:26;1.65;;;1.55;;
58689;SDS011;44470;53.206;-6.106;2022-12-18T05:16:54;2.15;;;1.60;;
58689;SDS011;44470;53.206;-6.106;2022-12-18T05:19:19;2.28;;;1.90;;
58689;SDS011;44470;53.206;-6.106;2022-12-18T05:21:45;1.80;;;1.50;;
58689;SDS011;44470;53.206;-6.106;2022-12-18T05:24:10;1.70;;;1.60;;
58689;SDS011;44470;53.206;-6.106;2022-12-18T05:26:36;2.25;;;1.50;;
58689;SDS011;44470;53.206;-6.106;2022-12-18T05:29:02;1.70;;;1.60;;
58689;SDS011;44470;53.206;-6.106;2022-12-18T05:31:27;1.80;;;1.65;;
58689;SDS011;44470;53.206;-6.106;2022-12-18T05:33:53;2.50;;;1.90;;
58689;SDS011;44470;53.206;-6.106;2022-12-18T05:39:31;1.92;;;1.75;;
58689;SDS011;44470;53.206;-6.106;2022-12-18T05:41:57;1.95;;;1.52;;
58689;SDS011;44470;53.206;-6.106;2022-12-18T05:44:23;2.25;;;1.58;;
58689;SDS011;44470;53.206;-6.106;2022-12-18T05:46:48;1.55;;;1.45;;
58689;SDS011;44470;53.206;-6.106;2022-12-18T05:49:14;2.55;;;1.65;;
58689;SDS011;44470;53.206;-6.106;2022-12-18T05:51:39;1.50;;;1.40;;
58689;SDS011;44470;53.206;-6.106;2022-12-18T05:54:05;1.42;;;1.33;;
58689;SDS011;44470;53.206;-6.106;2022-12-18T05:56:30;1.50;;;1.40;;
58689;SDS011;44470;53.206;-6.106;2022-12-18T05:58:55;2.35;;;1.60;;
58689;SDS011;44470;53.206;-6.106;2022-12-18T06:01:25;1.80;;;1.42;;
58689;SDS011;44470;53.206;-6.106;2022-12-18T06:03:51;1.50;;;1.40;;
58689;SDS011;44470;53.206;-6.106;2022-12-18T06:06:27;1.58;;;1.40;;
58689;SDS011;44470;53.206;-6.106;2022-12-18T06:08:53;2.08;;;1.83;;
58689;SDS011;44470;53.206;-6.106;2022-12-18T06:11:22;1.50;;;1.40;;
58689;SDS011;44470;53.206;-6.106;2022-12-18T06:13:49;2.15;;;1.63;;
58689;SDS011;44470;53.206;-6.106;2022-12-18T06:16:16;1.67;;;1.58;;
58689;SDS011;44470;53.206;-6.106;2022-12-18T06:18:42;1.60;;;1.50;;
58689;SDS011;44470;53.206;-6.106;2022-12-18T06:21:07;1.65;;;1.42;;
58689;SDS011;44470;53.206;-6.106;2022-12-18T06:23:33;1.60;;;1.50;;
58689;SDS011;44470;53.206;-6.106;2022-12-18T06:26:02;2.00;;;1.52;;
58689;SDS011;44470;53.206;-6.106;2022-12-18T06:28:29;3.10;;;1.60;;
58689;SDS011;44470;53.206;-6.106;2022-12-18T06:30:55;2.13;;;1.67;;
58689;SDS011;44470;53.206;-6.106;2022-12-18T06:33:21;1.70;;;1.60;;
58689;SDS011;44470;53.206;-6.106;2022-12-18T06:35:53;1.33;;;1.30;;
58689;SDS011;44470;53.206;-6.106;2022-12-18T06:38:19;2.28;;;1.70;;
58689;SDS011;44470;53.206;-6.106;2022-12-18T06:40:44;2.10;;;1.50;;
58689;SDS011;44470;53.206;-6.106;2022-12-18T06:43:09;2.03;;;1.55;;
58689;SDS011;44470;53.206;-6.106;2022-12-18T06:45:35;1.75;;;1.30;;
58689;SDS011;44470;53.206;-6.106;2022-12-18T06:48:00;3.58;;;1.70;;
58689;SDS011;44470;53.206;-6.106;2022-12-18T06:50:26;1.77;;;1.55;;
58689;SDS011;44470;53.206;-6.106;2022-12-18T06:52:51;1.85;;;1.50;;
58689;SDS011;44470;53.206;-6.106;2022-12-18T06:55:17;2.33;;;1.48;;
58689;SDS011;44470;53.206;-6.106;2022-12-18T06:57:43;1.70;;;1.60;;
58689;SDS011;44470;53.206;-6.106;2022-12-18T07:00:08;2.63;;;1.25;;
58689;SDS011;44470;53.206;-6.106;2022-12-18T07:02:34;2.08;;;1.40;;
58689;SDS011;44470;53.206;-6.106;2022-12-18T07:05:00;1.17;;;1.10;;
58689;SDS011;44470;53.206;-6.106;2022-12-18T07:07:26;1.40;;;1.30;;
58689;SDS011;44470;53.206;-6.106;2022-12-18T07:09:52;2.10;;;1.45;;
58689;SDS011;44470;53.206;-6.106;2022-12-18T07:12:17;1.50;;;1.40;;
58689;SDS011;44470;53.206;-6.106;2022-12-18T07:14:43;1.85;;;1.60;;
58689;SDS011;44470;53.206;-6.106;2022-12-18T07:17:08;1.60;;;1.50;;
58689;SDS011;44470;53.206;-6.106;2022-12-18T07:19:34;1.60;;;1.50;;
58689;SDS011;44470;53.206;-6.106;2022-12-18T07:21:59;1.15;;;1.15;;
58689;SDS011;44470;53.206;-6.106;2022-12-18T07:24:25;1.58;;;1.35;;
58689;SDS011;44470;53.206;-6.106;2022-12-18T07:26:51;1.50;;;1.40;;
58689;SDS011;44470;53.206;-6.106;2022-12-18T07:29:18;1.40;;;1.30;;
58689;SDS011;44470;53.206;-6.106;2022-12-18T07:31:43;1.38;;;1.27;;
58689;SDS011;44470;53.206;-6.106;2022-12-18T07:34:10;2.50;;;1.33;;
58689;SDS011;44470;53.206;-6.106;2022-12-18T07:36:36;1.90;;;1.30;;
58689;SDS011;44470;53.206;-6.106;2022-12-18T07:39:02;1.67;;;1.38;;
58689;SDS011;44470;53.206;-6.106;2022-12-18T07:41:31;1.42;;;1.33;;
58689;SDS011;44470;53.206;-6.106;2022-12-18T07:44:08;2.72;;;1.55;;
58689;SDS011;44470;53.206;-6.106;2022-12-18T07:46:35;1.60;;;1.30;;
58689;SDS011;44470;53.206;-6.106;2022-12-18T07:49:00;1.52;;;1.42;;
58689;SDS011;44470;53.206;-6.106;2022-12-18T07:51:26;1.08;;;1.08;;
58689;SDS011;44470;53.206;-6.106;2022-12-18T07:53:51;2.05;;;1.50;;
58689;SDS011;44470;53.206;-6.106;2022-12-18T07:56:17;1.75;;;1.35;;
58689;SDS011;44470;53.206;-6.106;2022-12-18T07:58:42;2.03;;;1.65;;
58689;SDS011;44470;53.206;-6.106;2022-12-18T08:01:10;1.50;;;1.40;;
58689;SDS011;44470;53.206;-6.106;2022-12-18T08:03:37;1.40;;;1.30;;
58689;SDS011;44470;53.206;-6.106;2022-12-18T08:06:05;1.48;;;1.30;;
58689;SDS011;44470;53.206;-6.106;2022-12-18T08:08:32;1.48;;;1.20;;
58689;SDS011;44470;53.206;-6.106;2022-12-18T08:10:58;1.83;;;1.58;;
58689;SDS011;44470;53.206;-6.106;2022-12-18T08:13:24;1.52;;;1.42;;
58689;SDS011;44470;53.206;-6.106;2022-12-18T08:16:00;1.55;;;1.38;;
58689;SDS011;44470;53.206;-6.106;2022-12-18T08:18:26;1.85;;;1.30;;
58689;SDS011;44470;53.206;-6.106;2022-12-18T08:20:51;1.40;;;1.30;;
58689;SDS011;44470;53.206;-6.106;2022-12-18T08:23:17;1.40;;;1.30;;
58689;SDS011;44470;53.206;-6.106;2022-12-18T08:25:42;1.80;;;1.50;;
58689;SDS011;44470;53.206;-6.106;2022-12-18T08:28:09;1.50;;;1.33;;
58689;SDS011;44470;53.206;-6.106;2022-12-18T08:30:35;1.48;;;1.38;;
58689;SDS011;44470;53.206;-6.106;2022-12-18T08:33:01;1.63;;;1.52;;
58689;SDS011;44470;53.206;-6.106;2022-12-18T08:35:26;1.45;;;1.33;;
58689;SDS011;44470;53.206;-6.106;2022-12-18T08:37:52;1.65;;;1.40;;
58689;SDS011;44470;53.206;-6.106;2022-12-18T08:40:17;2.25;;;1.67;;
58689;SDS011;44470;53.206;-6.106;2022-12-18T08:42:43;1.67;;;1.17;;
58689;SDS011;44470;53.206;-6.106;2022-12-18T08:45:27;2.10;;;1.17;;
58689;SDS011;44470;53.206;-6.106;2022-12-18T08:47:52;1.35;;;1.27;;
58689;SDS011;44470;53.206;-6.106;2022-12-18T08:50:19;1.10;;;1.10;;
58689;SDS011;44470;53.206;-6.106;2022-12-18T08:52:45;2.17;;;1.50;;
58689;SDS011;44470;53.206;-6.106;2022-12-18T08:55:10;1.52;;;1.35;;
58689;SDS011;44470;53.206;-6.106;2022-12-18T08:57:36;0.98;;;0.98;;
58689;SDS011;44470;53.206;-6.106;2022-12-18T09:00:02;1.33;;;1.20;;
58689;SDS011;44470;53.206;-6.106;2022-12-18T09:02:29;1.52;;;1.30;;
58689;SDS011;44470;53.206;-6.106;2022-12-18T09:04:54;1.35;;;1.25;;
58689;SDS011;44470;53.206;-6.106;2022-12-18T09:07:20;1.70;;;1.27;;
58689;SDS011;44470;53.206;-6.106;2022-12-18T09:09:45;1.98;;;1.70;;
58689;SDS011;44470;53.206;-6.106;2022-12-18T09:12:11;1.50;;;1.30;;
58689;SDS011;44470;53.206;-6.106;2022-12-18T09:14:37;1.40;;;1.27;;
58689;SDS011;44470;53.206;-6.106;2022-12-18T09:17:02;2.08;;;1.52;;
58689;SDS011;44470;53.206;-6.106;2022-12-18T09:19:28;1.40;;;1.30;;
58689;SDS011;44470;53.206;-6.106;2022-12-18T09:21:53;1.50;;;1.40;;
58689;SDS011;44470;53.206;-6.106;2022-12-18T09:24:19;1.58;;;1.48;;
58689;SDS011;44470;53.206;-6.106;2022-12-18T09:26:47;1.65;;;1.55;;
58689;SDS011;44470;53.206;-6.106;2022-12-18T09:29:14;2.13;;;1.45;;
58689;SDS011;44470;53.206;-6.106;2022-12-18T09:31:40;3.95;;;1.90;;
58689;SDS011;44470;53.206;-6.106;2022-12-18T09:34:06;1.67;;;1.38;;
58689;SDS011;44470;53.206;-6.106;2022-12-18T09:36:31;1.65;;;1.50;;
58689;SDS011;44470;53.206;-6.106;2022-12-18T09:38:57;1.75;;;1.27;;
58689;SDS011;44470;53.206;-6.106;2022-12-18T09:44:36;1.70;;;1.60;;
58689;SDS011;44470;53.206;-6.106;2022-12-18T09:55:05;2.08;;;1.40;;
58689;SDS011;44470;53.206;-6.106;2022-12-18T09:57:37;1.40;;;1.30;;
58689;SDS011;44470;53.206;-6.106;2022-12-18T10:02:42;1.95;;;1.58;;
58689;SDS011;44470;53.206;-6.106;2022-12-18T10:05:15;2.05;;;1.60;;
58689;SDS011;44470;53.206;-6.106;2022-12-18T10:07:47;1.50;;;1.33;;
58689;SDS011;44470;53.206;-6.106;2022-12-18T10:21:39;1.80;;;1.20;;
58689;SDS011;44470;53.206;-6.106;2022-12-18T10:26:38;2.33;;;1.70;;
58689;SDS011;44470;53.206;-6.106;2022-12-18T10:32:53;1.60;;;1.40;;
58689;SDS011;44470;53.206;-6.106;2022-12-18T10:35:25;1.63;;;1.50;;
58689;SDS011;44470;53.206;-6.106;2022-12-18T10:38:05;2.08;;;1.73;;
58689;SDS011;44470;53.206;-6.106;2022-12-18T10:40:49;1.27;;;1.17;;
58689;SDS011;44470;53.206;-6.106;2022-12-18T10:43:25;1.50;;;1.40;;
58689;SDS011;44470;53.206;-6.106;2022-12-18T10:48:25;1.95;;;1.50;;
58689;SDS011;44470;53.206;-6.106;2022-12-18T10:50:51;2.20;;;1.83;;
58689;SDS011;44470;53.206;-6.106;2022-12-18T10:53:24;5.22;;;3.22;;
58689;SDS011;44470;53.206;-6.106;2022-12-18T10:55:52;8.50;;;4.93;;
58689;SDS011;44470;53.206;-6.106;2022-12-18T11:03:41;17.20;;;7.73;;
58689;SDS011;44470;53.206;-6.106;2022-12-18T11:06:14;17.92;;;9.00;;
58689;SDS011;44470;53.206;-6.106;2022-12-18T11:08:42;19.90;;;8.57;;
58689;SDS011;44470;53.206;-6.106;2022-12-18T11:11:19;16.88;;;8.40;;
58689;SDS011;44470;53.206;-6.106;2022-12-18T11:13:55;16.40;;;8.27;;
58689;SDS011;44470;53.206;-6.106;2022-12-18T11:16:23;17.08;;;8.32;;
58689;SDS011;44470;53.206;-6.106;2022-12-18T11:18:49;15.60;;;8.05;;
58689;SDS011;44470;53.206;-6.106;2022-12-18T11:21:14;17.80;;;7.82;;
58689;SDS011;44470;53.206;-6.106;2022-12-18T11:23:50;15.15;;;7.35;;
58689;SDS011;44470;53.206;-6.106;2022-12-18T11:26:18;15.45;;;7.93;;
58689;SDS011;44470;53.206;-6.106;2022-12-18T11:28:47;15.20;;;7.50;;
58689;SDS011;44470;53.206;-6.106;2022-12-18T11:34:09;14.52;;;7.30;;
58689;SDS011;44470;53.206;-6.106;2022-12-18T11:36:34;14.52;;;7.32;;
58689;SDS011;44470;53.206;-6.106;2022-12-18T11:44:47;13.38;;;6.35;;
58689;SDS011;44470;53.206;-6.106;2022-12-18T11:47:21;12.27;;;6.65;;
58689;SDS011;44470;53.206;-6.106;2022-12-18T11:50:01;12.27;;;6.25;;
58689;SDS011;44470;53.206;-6.106;2022-12-18T11:52:38;10.82;;;6.45;;
58689;SDS011;44470;53.206;-6.106;2022-12-18T11:55:16;10.60;;;5.47;;
58689;SDS011;44470;53.206;-6.106;2022-12-18T11:58:21;9.63;;;5.30;;
58689;SDS011;44470;53.206;-6.106;2022-12-18T12:15:29;7.95;;;4.60;;
58689;SDS011;44470;53.206;-6.106;2022-12-18T12:26:22;8.00;;;3.85;;
58689;SDS011;44470;53.206;-6.106;2022-12-18T12:29:01;7.10;;;3.75;;
58689;SDS011;44470;53.206;-6.106;2022-12-18T12:31:41;8.00;;;4.10;;
58689;SDS011;44470;53.206;-6.106;2022-12-18T12:39:52;9.35;;;3.97;;
58689;SDS011;44470;53.206;-6.106;2022-12-18T12:42:23;10.95;;;3.90;;
58689;SDS011;44470;53.206;-6.106;2022-12-18T12:45:30;8.77;;;3.65;;
58689;SDS011;44470;53.206;-6.106;2022-12-18T12:48:02;8.23;;;3.50;;
58689;SDS011;44470;53.206;-6.106;2022-12-18T12:52:59;8.45;;;3.60;;
58689;SDS011;44470;53.206;-6.106;2022-12-18T12:55:30;4.82;;;3.20;;
58689;SDS011;44470;53.206;-6.106;2022-12-18T13:01:03;8.85;;;3.58;;
58689;SDS011;44470;53.206;-6.106;2022-12-18T13:03:46;8.98;;;3.08;;
58689;SDS011;44470;53.206;-6.106;2022-12-18T13:09:13;7.47;;;3.17;;
58689;SDS011;44470;53.206;-6.106;2022-12-18T13:11:42;7.10;;;3.13;;
58689;SDS011;44470;53.206;-6.106;2022-12-18T13:14:38;9.27;;;2.78;;
58689;SDS011;44470;53.206;-6.106;2022-12-18T13:19:41;10.73;;;3.08;;
58689;SDS011;44470;53.206;-6.106;2022-12-18T13:22:30;5.25;;;2.80;;
58689;SDS011;44470;53.206;-6.106;2022-12-18T13:24:56;6.32;;;2.70;;
58689;SDS011;44470;53.206;-6.106;2022-12-18T13:36:15;4.90;;;2.50;;
58689;SDS011;44470;53.206;-6.106;2022-12-18T13:38:47;4.22;;;2.45;;
58689;SDS011;44470;53.206;-6.106;2022-12-18T13:44:33;6.93;;;2.70;;
58689;SDS011;44470;53.206;-6.106;2022-12-18T13:47:04;5.75;;;2.53;;
58689;SDS011;44470;53.206;-6.106;2022-12-18T13:49:49;5.18;;;2.33;;
58689;SDS011;44470;53.206;-6.106;2022-12-18T13:52:17;4.72;;;2.40;;
58689;SDS011;44470;53.206;-6.106;2022-12-18T13:54:47;5.22;;;2.47;;
58689;SDS011;44470;53.206;-6.106;2022-12-18T13:59:55;3.85;;;2.30;;
58689;SDS011;44470;53.206;-6.106;2022-12-18T14:02:28;4.63;;;1.70;;
58689;SDS011;44470;53.206;-6.106;2022-12-18T14:04:54;4.05;;;2.20;;
58689;SDS011;44470;53.206;-6.106;2022-12-18T14:07:23;4.60;;;2.65;;
58689;SDS011;44470;53.206;-6.106;2022-12-18T14:09:57;4.72;;;2.10;;
58689;SDS011;44470;53.206;-6.106;2022-12-18T14:18:01;3.70;;;2.10;;
58689;SDS011;44470;53.206;-6.106;2022-12-18T14:20:29;2.70;;;2.22;;
58689;SDS011;44470;53.206;-6.106;2022-12-18T14:22:58;3.30;;;2.30;;
58689;SDS011;44470;53.206;-6.106;2022-12-18T14:25:28;3.00;;;2.00;;
58689;SDS011;44470;53.206;-6.106;2022-12-18T14:30:37;3.05;;;1.92;;
58689;SDS011;44470;53.206;-6.106;2022-12-18T14:33:06;5.03;;;2.13;;
58689;SDS011;44470;53.206;-6.106;2022-12-18T14:35:36;5.35;;;2.03;;
58689;SDS011;44470;53.206;-6.106;2022-12-18T14:38:22;5.68;;;2.30;;
58689;SDS011;44470;53.206;-6.106;2022-12-18T14:41:32;5.25;;;2.13;;
58689;SDS011;44470;53.206;-6.106;2022-12-18T14:43:41;4.68;;;2.03;;
58689;SDS011;44470;53.206;-6.106;2022-12-18T14:48:59;3.55;;;2.10;;
58689;SDS011;44470;53.206;-6.106;2022-12-18T14:51:27;4.00;;;1.85;;
58689;SDS011;44470;53.206;-6.106;2022-12-18T14:53:55;4.00;;;2.05;;
58689;SDS011;44470;53.206;-6.106;2022-12-18T14:56:27;4.90;;;1.83;;
58689;SDS011;44470;53.206;-6.106;2022-12-18T14:58:58;4.28;;;1.83;;
58689;SDS011;44470;53.206;-6.106;2022-12-18T15:01:32;3.05;;;2.13;;
58689;SDS011;44470;53.206;-6.106;2022-12-18T15:04:02;4.13;;;2.10;;
58689;SDS011;44470;53.206;-6.106;2022-12-18T15:09:03;3.08;;;1.77;;
58689;SDS011;44470;53.206;-6.106;2022-12-18T15:11:46;3.63;;;1.88;;
58689;SDS011;44470;53.206;-6.106;2022-12-18T15:17:17;3.92;;;1.80;;
58689;SDS011;44470;53.206;-6.106;2022-12-18T15:19:45;3.95;;;1.95;;
58689;SDS011;44470;53.206;-6.106;2022-12-18T15:22:24;3.58;;;1.98;;
58689;SDS011;44470;53.206;-6.106;2022-12-18T15:24:51;4.05;;;1.83;;
58689;SDS011;44470;53.206;-6.106;2022-12-18T15:27:25;5.70;;;1.90;;
58689;SDS011;44470;53.206;-6.106;2022-12-18T15:32:32;6.20;;;2.30;;
58689;SDS011;44470;53.206;-6.106;2022-12-18T15:37:36;6.78;;;2.13;;
58689;SDS011;44470;53.206;-6.106;2022-12-18T15:40:05;4.95;;;1.88;;
58689;SDS011;44470;53.206;-6.106;2022-12-18T15:42:32;4.97;;;2.00;;
58689;SDS011;44470;53.206;-6.106;2022-12-18T15:45:16;3.88;;;2.00;;
58689;SDS011;44470;53.206;-6.106;2022-12-18T15:47:42;2.70;;;1.73;;
58689;SDS011;44470;53.206;-6.106;2022-12-18T15:50:07;4.65;;;1.92;;
58689;SDS011;44470;53.206;-6.106;2022-12-18T15:52:35;4.75;;;1.83;;
58689;SDS011;44470;53.206;-6.106;2022-12-18T15:55:09;2.85;;;1.70;;
58689;SDS011;44470;53.206;-6.106;2022-12-18T15:57:56;5.32;;;1.95;;
58689;SDS011;44470;53.206;-6.106;2022-12-18T16:00:22;3.78;;;2.15;;
58689;SDS011;44470;53.206;-6.106;2022-12-18T16:02:47;3.40;;;1.67;;
58689;SDS011;44470;53.206;-6.106;2022-12-18T16:05:14;4.45;;;1.77;;
58689;SDS011;44470;53.206;-6.106;2022-12-18T16:07:42;3.80;;;1.75;;
58689;SDS011;44470;53.206;-6.106;2022-12-18T16:10:08;4.88;;;1.77;;
58689;SDS011;44470;53.206;-6.106;2022-12-18T16:12:34;6.10;;;1.80;;
58689;SDS011;44470;53.206;-6.106;2022-12-18T16:15:00;2.65;;;1.83;;
58689;SDS011;44470;53.206;-6.106;2022-12-18T16:17:26;4.80;;;1.75;;
58689;SDS011;44470;53.206;-6.106;2022-12-18T16:19:51;5.95;;;1.80;;
58689;SDS011;44470;53.206;-6.106;2022-12-18T16:24:51;3.55;;;1.70;;
58689;SDS011;44470;53.206;-6.106;2022-12-18T16:27:17;3.85;;;1.67;;
58689;SDS011;44470;53.206;-6.106;2022-12-18T16:29:43;2.65;;;1.60;;
58689;SDS011;44470;53.206;-6.106;2022-12-18T16:32:11;3.83;;;1.80;;
58689;SDS011;44470;53.206;-6.106;2022-12-18T16:34:39;5.60;;;1.50;;
58689;SDS011;44470;53.206;-6.106;2022-12-18T16:37:07;4.30;;;1.48;;
58689;SDS011;44470;53.206;-6.106;2022-12-18T16:39:34;5.20;;;1.92;;
58689;SDS011;44470;53.206;-6.106;2022-12-18T16:42:02;2.70;;;1.85;;
58689;SDS011;44470;53.206;-6.106;2022-12-18T16:44:28;2.83;;;1.63;;
58689;SDS011;44470;53.206;-6.106;2022-12-18T16:46:53;4.63;;;2.38;;
58689;SDS011;44470;53.206;-6.106;2022-12-18T16:49:19;4.57;;;1.88;;
58689;SDS011;44470;53.206;-6.106;2022-12-18T16:51:45;2.78;;;1.23;;
58689;SDS011;44470;53.206;-6.106;2022-12-18T16:54:11;3.38;;;1.60;;
58689;SDS011;44470;53.206;-6.106;2022-12-18T16:56:36;4.50;;;2.00;;
58689;SDS011;44470;53.206;-6.106;2022-12-18T16:59:04;3.65;;;1.67;;
58689;SDS011;44470;53.206;-6.106;2022-12-18T17:01:30;2.58;;;1.83;;
58689;SDS011;44470;53.206;-6.106;2022-12-18T17:03:57;2.70;;;1.42;;
58689;SDS011;44470;53.206;-6.106;2022-12-18T17:06:26;3.90;;;1.80;;
58689;SDS011;44470;53.206;-6.106;2022-12-18T17:08:59;3.72;;;1.67;;
58689;SDS011;44470;53.206;-6.106;2022-12-18T17:11:30;4.45;;;1.63;;
58689;SDS011;44470;53.206;-6.106;2022-12-18T17:13:58;6.97;;;1.88;;
58689;SDS011;44470;53.206;-6.106;2022-12-18T17:16:24;3.47;;;1.70;;
58689;SDS011;44470;53.206;-6.106;2022-12-18T17:18:51;3.85;;;1.50;;
58689;SDS011;44470;53.206;-6.106;2022-12-18T17:21:17;3.42;;;1.50;;
58689;SDS011;44470;53.206;-6.106;2022-12-18T17:23:43;4.43;;;1.60;;
58689;SDS011;44470;53.206;-6.106;2022-12-18T17:26:09;3.38;;;1.70;;
58689;SDS011;44470;53.206;-6.106;2022-12-18T17:28:36;5.05;;;1.55;;
58689;SDS011;44470;53.206;-6.106;2022-12-18T17:31:09;3.38;;;1.80;;
58689;SDS011;44470;53.206;-6.106;2022-12-18T17:33:35;5.05;;;1.98;;